Terminal Aerodrome Forecast
Issued by NWS Sioux Falls, SD

Home | Current Version | Previous Version | Text Only | Print | Product List | Glossary On
Versions: 1 2 3 4 5 6 7 8 9 10 11 12 13 14 15 16 17 18 19 20 21 22 23 24 25 26 27 28 29 30 31 32 33 34 35 36 37
000
FTUS43 KFSD 271100
TAFSUX
TAF
KSUX 271140Z 2712/2812 07005KT P6SM BKN025
     FM271400 09008KT P6SM -TSRA BKN010CB
     FM272000 12007KT P6SM BKN015
     FM280200 12007KT 5SM -TSRA BKN015CB
      TEMPO 2803/2807 3SM TSRA BKN008CB=

USA.gov is the U.S. government's official web portal to all federal, state and local government web resources and services.